createdAt,value
2023-01-02T00:01:52.665Z,100675.58
2023-01-02T00:06:55.384Z,100678.89
2023-01-02T00:11:58.181Z,100686.10
2023-01-02T00:17:00.844Z,100687.83
2023-01-02T00:22:03.528Z,100680.56
2023-01-02T00:27:06.244Z,100686.84
2023-01-02T00:32:08.979Z,100693.71
2023-01-02T00:37:11.690Z,100699.05
2023-01-02T00:42:14.476Z,100703.36
2023-01-02T00:47:17.172Z,100701.73
2023-01-02T00:52:19.835Z,100706.52
2023-01-02T00:57:22.571Z,100703.59
2023-01-02T01:02:25.298Z,100691.06
2023-01-02T01:07:29.610Z,100688.30
2023-01-02T01:12:32.366Z,100695.70
2023-01-02T01:17:35.106Z,100699.59
2023-01-02T01:22:37.846Z,100705.08
2023-01-02T01:27:40.708Z,100701.83
2023-01-02T01:32:43.412Z,100693.11
2023-01-02T01:37:46.107Z,100686.46
2023-01-02T01:42:50.379Z,100682.98
2023-01-02T01:47:57.004Z,100682.03
2023-01-02T01:53:16.507Z,100684.34
2023-01-02T01:58:24.627Z,100688.15
2023-01-02T02:03:32.284Z,100675.60
2023-01-02T02:08:49.059Z,100679.94
2023-01-02T02:13:56.625Z,100691.39
2023-01-02T02:19:14.850Z,100695.20
2023-01-02T02:24:32.872Z,100700.23
2023-01-02T02:29:54.318Z,100710.27
2023-01-02T02:35:04.829Z,100714.19
2023-01-02T02:40:45.851Z,100716.09
2023-01-02T02:46:09.123Z,100723.01
2023-01-02T02:51:21.045Z,100723.59
2023-01-02T02:56:27.334Z,100723.39
2023-01-02T03:01:32.157Z,100730.08
2023-01-02T03:07:07.649Z,100729.98
2023-01-02T03:12:48.745Z,100713.80
2023-01-02T03:18:11.035Z,100711.83
2023-01-02T03:23:21.282Z,100703.83
2023-01-02T03:28:27.133Z,100680.30
2023-01-02T03:33:39.784Z,100676.38
2023-01-02T03:38:57.831Z,100671.81
2023-01-02T03:44:03.689Z,100668.03
2023-01-02T03:49:34.674Z,100664.10
2023-01-02T03:54:38.272Z,100662.64
2023-01-02T03:59:49.912Z,100659.52
2023-01-02T04:04:56.701Z,100639.96
2023-01-02T04:10:01.249Z,100636.53
2023-01-02T04:15:08.774Z,100634.70
2023-01-02T04:20:19.239Z,100638.65
2023-01-02T04:25:30.032Z,100633.01
2023-01-02T04:30:40.092Z,100632.37
2023-01-02T04:35:42.942Z,100626.15
2023-01-02T04:40:45.784Z,100625.73
2023-01-02T04:45:48.873Z,100628.84
2023-01-02T04:50:54.863Z,100628.17
2023-01-02T04:55:57.893Z,100618.79
2023-01-02T05:01:00.698Z,100605.86
2023-01-02T05:06:03.504Z,100603.94
2023-01-02T05:11:17.445Z,100594.45
2023-01-02T05:16:20.313Z,100588.23
2023-01-02T05:21:46.412Z,100588.63
2023-01-02T05:26:49.096Z,100586.67
2023-01-02T05:31:51.977Z,100583.73
2023-01-02T05:36:54.694Z,100582.09
2023-01-02T05:41:57.350Z,100560.58
2023-01-02T05:47:00.112Z,100545.06
2023-01-02T05:52:02.835Z,100533.17
2023-01-02T05:57:05.709Z,100527.80
2023-01-02T06:02:08.420Z,100515.51
2023-01-02T06:07:11.275Z,100510.27
2023-01-02T06:12:14.019Z,100498.11
2023-01-02T06:17:16.922Z,100494.49
2023-01-02T06:22:19.619Z,100486.95
2023-01-02T06:27:22.424Z,100470.45
2023-01-02T06:32:25.104Z,100477.45
2023-01-02T06:37:27.764Z,100472.73
2023-01-02T06:42:30.440Z,100462.83
2023-01-02T06:47:33.116Z,100461.23
2023-01-02T06:52:35.867Z,100445.92
2023-01-02T06:57:38.646Z,100446.60
2023-01-02T07:02:42.271Z,100444.75
2023-01-02T07:07:45.236Z,100441.02
2023-01-02T07:12:47.938Z,100436.91
2023-01-02T07:17:51.166Z,100424.16
2023-01-02T07:22:54.833Z,100422.02
2023-01-02T07:27:59.446Z,100427.33
2023-01-02T07:33:02.159Z,100441.27
2023-01-02T07:38:04.874Z,100447.07
2023-01-02T07:43:07.563Z,100435.14
2023-01-02T07:48:10.366Z,100425.50
2023-01-02T07:53:13.492Z,100420.05
2023-01-02T07:58:16.203Z,100420.36
2023-01-02T08:03:18.963Z,100411.02
2023-01-02T08:08:21.679Z,100402.27
2023-01-02T08:13:24.466Z,100403.10
2023-01-02T08:18:27.179Z,100403.27
2023-01-02T08:23:30.838Z,100402.59
2023-01-02T08:28:35.278Z,100398.21
2023-01-02T08:33:38.187Z,100406.18
2023-01-02T08:38:41.139Z,100401.84
2023-01-02T08:43:44.241Z,100393.77
2023-01-02T08:48:47.286Z,100388.40
2023-01-02T08:53:50.517Z,100385.52
2023-01-02T08:59:05.286Z,100382.45
2023-01-02T09:04:12.491Z,100374.49
2023-01-02T09:09:18.072Z,100371.35
2023-01-02T09:14:22.099Z,100363.13
2023-01-02T09:19:26.454Z,100356.15
2023-01-02T09:24:30.509Z,100342.20
2023-01-02T09:29:33.189Z,100342.31
2023-01-02T09:34:36.062Z,100345.73
2023-01-02T09:39:38.926Z,100335.90
2023-01-02T09:44:47.889Z,100322.66
2023-01-02T09:50:03.478Z,100314.19
2023-01-02T09:55:18.000Z,100318.98
2023-01-02T10:00:23.680Z,100318.46
2023-01-02T10:05:29.626Z,100313.88
2023-01-02T10:10:38.733Z,100307.33
2023-01-02T10:15:47.427Z,100303.17
2023-01-02T10:21:07.972Z,100295.24
2023-01-02T10:26:19.167Z,100294.45
2023-01-02T10:31:30.887Z,100288.19
2023-01-02T10:36:39.972Z,100287.84
2023-01-02T10:41:48.693Z,100290.17
2023-01-02T10:46:54.430Z,100285.23
2023-01-02T10:52:11.617Z,100276.50
2023-01-02T10:57:21.119Z,100268.55
2023-01-02T11:02:40.160Z,100268.55
2023-01-02T11:07:48.935Z,100272.73
2023-01-02T11:12:51.810Z,100270.35
2023-01-02T11:17:54.835Z,100267.80
2023-01-02T11:23:01.636Z,100266.30
2023-01-02T11:28:05.521Z,100263.48
2023-01-02T11:33:14.186Z,100257.36
2023-01-02T11:38:29.640Z,100243.95
2023-01-02T11:43:49.067Z,100234.58
2023-01-02T11:48:54.766Z,100241.12
2023-01-02T11:54:00.712Z,100242.60
2023-01-02T11:59:13.583Z,100232.27
2023-01-02T12:04:16.908Z,100222.46
2023-01-02T12:09:25.608Z,100204.73
2023-01-02T12:14:54.158Z,100205.38
2023-01-02T12:20:14.105Z,100211.85
2023-01-02T12:25:34.013Z,100203.92
2023-01-02T12:30:45.149Z,100203.58
2023-01-02T12:35:54.022Z,100198.77
2023-01-02T12:41:22.743Z,100195.74
2023-01-02T12:47:09.603Z,100191.92
2023-01-02T12:52:34.114Z,100193.40
2023-01-02T12:58:03.462Z,100186.62
2023-01-02T13:03:34.220Z,100178.52
2023-01-02T13:08:46.029Z,100174.95
2023-01-02T13:13:49.191Z,100171.36
2023-01-02T13:19:30.549Z,100171.91
2023-01-02T13:24:34.004Z,100166.23
2023-01-02T13:29:45.186Z,100157.92
2023-01-02T13:34:53.977Z,100157.69
2023-01-02T13:40:00.207Z,100159.67
2023-01-02T13:45:10.726Z,100170.12
2023-01-02T13:50:21.642Z,100176.02
2023-01-02T13:55:31.615Z,100172.15
2023-01-02T14:00:37.236Z,100173.84
2023-01-02T14:06:03.618Z,100148.81
2023-01-02T14:11:07.943Z,100129.38
2023-01-02T14:16:22.916Z,100135.92
2023-01-02T14:21:33.323Z,100118.45
2023-01-02T14:26:38.754Z,100110.45
2023-01-02T14:31:42.942Z,100122.63
2023-01-02T14:36:48.588Z,100134.92
2023-01-02T14:42:10.086Z,100152.58
2023-01-02T14:47:16.293Z,100143.74
2023-01-02T14:52:30.690Z,100137.02
2023-01-02T14:57:37.440Z,100118.08
2023-01-02T15:02:45.748Z,100126.02
2023-01-02T15:07:53.276Z,100128.13
2023-01-02T15:13:07.744Z,100130.71
2023-01-02T15:18:28.609Z,100125.86
2023-01-02T15:23:31.748Z,100138.14
2023-01-02T15:28:34.746Z,100148.77
2023-01-02T15:33:37.472Z,100162.98
2023-01-02T15:38:41.554Z,100163.65
2023-01-02T15:44:03.730Z,100173.88
2023-01-02T15:49:08.595Z,100178.98
2023-01-02T15:54:14.323Z,100168.42
2023-01-02T15:59:34.143Z,100162.55
2023-01-02T16:04:37.041Z,100157.96
2023-01-02T16:09:42.582Z,100163.13
2023-01-02T16:14:50.711Z,100155.21
2023-01-02T16:20:00.216Z,100151.14
2023-01-02T16:25:13.845Z,100146.46
2023-01-02T16:30:28.580Z,100145.42
2023-01-02T16:35:37.164Z,100148.55
2023-01-02T16:41:01.222Z,100154.38
2023-01-02T16:46:11.298Z,100150.95
2023-01-02T16:51:15.688Z,100148.21
2023-01-02T16:56:18.364Z,100150.20
2023-01-02T17:01:23.812Z,100152.48
2023-01-02T17:06:26.653Z,100149.00
2023-01-02T17:11:29.972Z,100150.70
2023-01-02T17:16:32.829Z,100148.08
2023-01-02T17:21:35.613Z,100145.14
2023-01-02T17:26:38.395Z,100143.38
2023-01-02T17:31:41.604Z,100147.66
2023-01-02T17:36:44.463Z,100146.89
2023-01-02T17:41:49.335Z,100149.02
2023-01-02T17:47:23.247Z,100153.44
2023-01-02T17:52:14.853Z,100151.34
2023-01-02T17:57:18.080Z,100149.83
2023-01-02T18:02:21.882Z,100151.30
2023-01-02T18:07:25.351Z,100150.59
2023-01-02T18:12:28.001Z,100141.20
2023-01-02T18:17:30.662Z,100135.88
2023-01-02T18:22:33.536Z,100134.50
2023-01-02T18:27:36.255Z,100130.16
2023-01-02T18:32:42.005Z,100136.69
2023-01-02T18:37:45.114Z,100134.80
2023-01-02T18:42:55.311Z,100136.38
2023-01-02T18:47:58.936Z,100144.41
2023-01-02T18:53:16.877Z,100139.98
2023-01-02T18:58:43.595Z,100145.99
2023-01-02T19:03:47.975Z,100147.39
2023-01-02T19:08:50.785Z,100147.70
2023-01-02T19:13:58.676Z,100141.27
2023-01-02T19:19:08.039Z,100134.48
2023-01-02T19:24:20.089Z,100136.30
2023-01-02T19:29:26.565Z,100130.64
2023-01-02T19:34:42.509Z,100132.02
2023-01-02T19:39:54.748Z,100129.65
2023-01-02T19:44:58.587Z,100137.02
2023-01-02T19:50:02.919Z,100141.38
2023-01-02T19:55:07.519Z,100141.64
2023-01-02T20:00:12.875Z,100145.98
2023-01-02T20:05:21.455Z,100149.82
2023-01-02T20:10:25.921Z,100153.60
2023-01-02T20:15:29.112Z,100146.64
2023-01-02T20:20:31.984Z,100143.17
2023-01-02T20:25:34.801Z,100141.73
2023-01-02T20:30:37.527Z,100148.47
2023-01-02T20:35:40.264Z,100152.84
2023-01-02T20:40:42.934Z,100161.61
2023-01-02T20:45:45.738Z,100158.33
2023-01-02T20:50:48.886Z,100146.77
2023-01-02T20:55:51.637Z,100144.45
2023-01-02T21:00:54.317Z,100147.11
2023-01-02T21:05:57.041Z,100158.02
2023-01-02T21:10:59.754Z,100161.79
2023-01-02T21:16:02.906Z,100159.66
2023-01-02T21:21:10.481Z,100153.73
2023-01-02T21:26:16.878Z,100167.67
2023-01-02T21:31:20.613Z,100162.55
2023-01-02T21:36:23.370Z,100175.20
2023-01-02T21:41:45.007Z,100187.09
2023-01-02T21:46:47.694Z,100180.23
2023-01-02T21:51:50.371Z,100186.11
2023-01-02T21:56:53.138Z,100192.15
2023-01-02T22:01:57.223Z,100189.41
2023-01-02T22:12:23.077Z,100200.94
2023-01-02T22:17:26.027Z,100203.78
2023-01-02T22:22:29.456Z,100211.67
2023-01-02T22:27:32.270Z,100212.57
2023-01-02T22:32:35.343Z,100209.09
2023-01-02T22:37:38.151Z,100217.55
2023-01-02T22:43:05.684Z,100238.13
2023-01-02T22:48:20.449Z,100258.23
2023-01-02T22:53:27.819Z,100267.96
2023-01-02T22:58:30.607Z,100292.84
2023-01-02T23:03:38.642Z,100299.86
2023-01-02T23:08:41.673Z,100286.45
2023-01-02T23:13:45.641Z,100297.11
2023-01-02T23:19:07.107Z,100311.09
2023-01-02T23:24:11.252Z,100316.09
2023-01-02T23:29:15.154Z,100332.64
2023-01-02T23:34:21.301Z,100331.47
2023-01-02T23:39:27.721Z,100348.60
2023-01-02T23:44:30.547Z,100357.48
2023-01-02T23:49:33.231Z,100366.30
2023-01-02T23:54:36.052Z,100378.61
2023-01-02T23:59:38.760Z,100388.41
